Estación Meteorológica Peña el Pijo (Robertgarden) [ 06/14/24 08:41:36 CEST ]

Fecha Hora Presion(HPa) Temp (°C) Humedad % Rocio (°C) Viento ( m/s) Direccion Lluvia 1Hora(mm) Lluvia 24H(mm) LLuvia Total(mm)
2013-May-15 01:01:14 1000.800 11.4 67 5.5         204.09
2013-May-15 02:01:12 1000.000 9.6 73 5.0         204.09
2013-May-15 03:01:48 999.100 8.3 77 4.5         204.09
2013-May-15 04:05:17 998.400 8.6 77 4.8         204.09
2013-May-15 05:01:17 997.800 10.2 73 5.6         204.09
2013-May-15 06:01:13 997.300 10.5 71 5.5         204.09
2013-May-15 07:01:12 996.800 10.0 72 5.2         204.09
2013-May-15 08:01:18 996.600 11.3 72 6.5         204.09
2013-May-15 09:01:13 996.300 13.9 66 7.6         204.09
2013-May-15 10:01:11 996.100 16.6 54 7.2         204.09
2013-May-15 11:01:12 996.000 16.7 51 6.5         204.09
2013-May-15 12:01:16 995.900 17.9 46 6.0 2.2 S     204.09
2013-May-15 13:01:14 995.400 20.1 41 6.4         204.09
2013-May-15 14:01:16 994.700 19.5 35 3.5         204.09
2013-May-15 15:01:16 994.400 20.1 37 4.9 2.6 SSW     204.09
2013-May-15 16:01:16 994.400 17.9 40 4.1         204.09
2013-May-15 17:01:17 994.500 18.4 38 3.8         204.09
2013-May-15 18:01:13 994.600 15.6 39 1.6 3.5 SSW     204.09
2013-May-15 19:01:13 994.400 12.8 54 3.7 1.0 SSW     204.09
2013-May-15 20:01:16 994.600 12.3 56 3.5         204.09
2013-May-15 21:01:17 994.800 11.4 60 3.9         204.09
2013-May-15 22:01:12 995.400 9.0 77 5.2         204.09
2013-May-15 23:01:17 996.100 8.2 81 5.2         204.09

Temperatura Máxima:20°    Temperatura Mínima:
Presión Máxima:1000.800 Hpa    Presión Mínima:994.400 Hpa


Volver